createdAt,value
2023-01-10T00:00:19.748Z,93.64
2023-01-10T00:01:19.706Z,94.06
2023-01-10T00:02:19.685Z,94.31
2023-01-10T00:03:19.637Z,94.47
2023-01-10T00:04:19.635Z,93.95
2023-01-10T00:05:19.591Z,94.89
2023-01-10T00:06:19.626Z,94.37
2023-01-10T00:07:19.578Z,94.57
2023-01-10T00:08:19.595Z,94.16
2023-01-10T00:09:19.525Z,94.26
2023-01-10T00:10:19.516Z,94.78
2023-01-10T00:11:19.539Z,94.78
2023-01-10T00:12:19.477Z,94.78
2023-01-10T00:13:19.478Z,94.89
2023-01-10T00:14:19.435Z,95.19
2023-01-10T00:15:19.445Z,95.09
2023-01-10T00:16:19.478Z,95.81
2023-01-10T00:17:19.391Z,95.81
2023-01-10T00:18:19.371Z,95.92
2023-01-10T00:19:19.368Z,95.19
2023-01-10T00:20:19.336Z,95.71
2023-01-10T00:21:19.341Z,95.50
2023-01-10T00:22:19.301Z,95.61
2023-01-10T00:23:19.290Z,95.67
2023-01-10T00:24:19.305Z,95.71
2023-01-10T00:25:19.265Z,96.02
2023-01-10T00:26:19.271Z,96.08
2023-01-10T00:27:19.221Z,95.71
2023-01-10T00:28:19.206Z,96.08
2023-01-10T00:29:19.184Z,95.67
2023-01-10T00:30:19.167Z,95.87
2023-01-10T00:31:19.221Z,95.67
2023-01-10T00:32:19.128Z,95.71
2023-01-10T00:33:19.122Z,95.40
2023-01-10T00:34:19.107Z,96.54
2023-01-10T00:35:19.086Z,95.92
2023-01-10T00:36:19.093Z,96.12
2023-01-10T00:37:19.049Z,96.02
2023-01-10T00:38:19.039Z,96.23
2023-01-10T00:39:19.056Z,96.33
2023-01-10T00:40:19.009Z,96.54
2023-01-10T00:41:19.007Z,96.33
2023-01-10T00:42:18.985Z,96.33
2023-01-10T00:43:18.948Z,96.33
2023-01-10T00:44:18.919Z,96.12
2023-01-10T00:45:18.895Z,95.98
2023-01-10T00:46:18.971Z,95.67
2023-01-10T00:47:18.875Z,95.56
2023-01-10T00:48:18.851Z,95.77
2023-01-10T00:49:18.849Z,95.25
2023-01-10T00:50:18.862Z,95.67
2023-01-10T00:51:18.830Z,95.56
2023-01-10T00:52:18.819Z,95.36
2023-01-10T00:53:18.783Z,95.46
2023-01-10T00:54:18.747Z,95.67
2023-01-10T00:55:18.782Z,95.98
2023-01-10T00:56:18.736Z,95.46
2023-01-10T00:57:18.704Z,95.77
2023-01-10T00:58:18.700Z,96.08
2023-01-10T00:59:18.656Z,95.87
2023-01-10T01:00:18.659Z,95.83
2023-01-10T01:01:18.837Z,96.08
2023-01-10T01:02:18.759Z,95.56
2023-01-10T01:03:18.592Z,95.46
2023-01-10T01:04:18.598Z,95.46
2023-01-10T01:05:18.573Z,95.42
2023-01-10T01:06:18.569Z,95.83
2023-01-10T01:07:18.528Z,95.62
2023-01-10T01:08:18.514Z,95.83
2023-01-10T01:09:18.487Z,95.73
2023-01-10T01:10:18.488Z,96.03
2023-01-10T01:11:18.490Z,95.73
2023-01-10T01:12:18.445Z,95.31
2023-01-10T01:13:18.429Z,95.73
2023-01-10T01:14:18.406Z,96.03
2023-01-10T01:15:18.406Z,95.83
2023-01-10T01:16:18.483Z,95.62
2023-01-10T01:17:18.363Z,95.31
2023-01-10T01:18:18.339Z,95.73
2023-01-10T01:19:18.335Z,95.62
2023-01-10T01:20:18.301Z,96.03
2023-01-10T01:21:18.323Z,95.52
2023-01-10T01:22:18.263Z,95.94
2023-01-10T01:23:18.270Z,95.73
2023-01-10T01:24:18.237Z,95.73
2023-01-10T01:25:18.227Z,95.77
2023-01-10T01:26:18.246Z,95.31
2023-01-10T01:27:18.207Z,95.94
2023-01-10T01:28:18.181Z,96.03
2023-01-10T01:29:18.231Z,96.24
2023-01-10T01:30:19.127Z,96.29
2023-01-10T01:31:18.177Z,96.24
2023-01-10T01:32:18.090Z,96.03
2023-01-10T01:33:18.073Z,96.34
2023-01-10T01:34:18.069Z,96.08
2023-01-10T01:35:18.044Z,95.67
2023-01-10T01:36:18.054Z,95.94
2023-01-10T01:37:18.009Z,96.34
2023-01-10T01:38:17.995Z,96.34
2023-01-10T01:39:17.980Z,96.24
2023-01-10T01:40:17.957Z,96.24
2023-01-10T01:41:17.971Z,96.24
2023-01-10T01:42:17.926Z,95.73
2023-01-10T01:43:17.900Z,95.42
2023-01-10T01:44:17.913Z,95.77
2023-01-10T01:45:17.869Z,95.56
2023-01-10T01:46:17.928Z,95.67
2023-01-10T01:47:17.839Z,95.25
2023-01-10T01:48:17.819Z,95.36
2023-01-10T01:49:17.823Z,95.61
2023-01-10T01:50:17.820Z,95.67
2023-01-10T01:51:17.794Z,95.19
2023-01-10T01:52:17.754Z,96.39
2023-01-10T01:53:17.724Z,95.81
2023-01-10T01:54:17.708Z,95.46
2023-01-10T01:55:17.696Z,96.29
2023-01-10T01:56:17.723Z,96.19
2023-01-10T01:57:17.675Z,95.29
2023-01-10T01:58:17.641Z,95.77
2023-01-10T01:59:17.660Z,95.25
2023-01-10T02:00:17.609Z,94.84
2023-01-10T02:01:17.762Z,95.77
2023-01-10T02:02:17.722Z,95.15
2023-01-10T02:03:17.609Z,96.08
2023-01-10T02:04:17.603Z,96.08
2023-01-10T02:05:17.527Z,95.19
2023-01-10T02:06:17.542Z,94.89
2023-01-10T02:07:17.497Z,94.73
2023-01-10T02:08:17.467Z,94.94
2023-01-10T02:09:17.528Z,95.56
2023-01-10T02:10:17.436Z,95.81
2023-01-10T02:11:17.419Z,95.92
2023-01-10T02:12:17.444Z,95.50
2023-01-10T02:13:17.396Z,95.29
2023-01-10T02:14:17.382Z,95.50
2023-01-10T02:15:17.347Z,95.29
2023-01-10T02:16:17.401Z,96.02
2023-01-10T02:17:17.366Z,95.92
2023-01-10T02:18:17.309Z,95.71
2023-01-10T02:19:17.269Z,96.08
2023-01-10T02:20:17.285Z,95.40
2023-01-10T02:21:17.255Z,96.02
2023-01-10T02:22:17.319Z,96.49
2023-01-10T02:23:17.211Z,96.54
2023-01-10T02:24:17.212Z,95.81
2023-01-10T02:25:17.171Z,95.81
2023-01-10T02:26:17.183Z,96.54
2023-01-10T02:27:17.227Z,96.33
2023-01-10T02:28:19.608Z,96.23
2023-01-10T02:29:17.118Z,95.81
2023-01-10T02:30:17.096Z,96.44
2023-01-10T02:31:17.129Z,96.33
2023-01-10T02:32:17.178Z,96.85
2023-01-10T02:33:17.043Z,96.75
2023-01-10T02:34:17.024Z,96.85
2023-01-10T02:35:17.021Z,96.75
2023-01-10T02:36:17.023Z,96.64
2023-01-10T02:37:17.008Z,96.23
2023-01-10T02:38:16.948Z,96.75
2023-01-10T02:39:16.969Z,96.54
2023-01-10T02:40:16.913Z,96.12
2023-01-10T02:41:16.926Z,96.44
2023-01-10T02:42:16.934Z,96.75
2023-01-10T02:43:16.872Z,97.06
2023-01-10T02:44:18.271Z,96.85
2023-01-10T02:45:17.841Z,96.85
2023-01-10T02:46:16.859Z,96.85
2023-01-10T02:47:16.815Z,97.93
2023-01-10T02:48:16.808Z,96.69
2023-01-10T02:49:16.773Z,97.16
2023-01-10T02:50:16.774Z,97.57
2023-01-10T02:51:16.730Z,97.00
2023-01-10T02:52:16.878Z,96.89
2023-01-10T02:53:16.703Z,96.69
2023-01-10T02:54:16.687Z,97.41
2023-01-10T02:55:16.660Z,97.10
2023-01-10T02:56:16.666Z,96.79
2023-01-10T02:57:16.658Z,96.79
2023-01-10T02:58:16.615Z,97.00
2023-01-10T02:59:16.611Z,96.75
2023-01-10T03:00:16.582Z,96.17
2023-01-10T03:01:16.657Z,96.17
2023-01-10T03:02:16.641Z,96.27
2023-01-10T03:03:16.521Z,96.79
2023-01-10T03:04:16.678Z,96.73
2023-01-10T03:05:16.494Z,97.00
2023-01-10T03:06:16.469Z,96.83
2023-01-10T03:07:16.515Z,96.94
2023-01-10T03:08:16.532Z,97.31
2023-01-10T03:09:16.447Z,96.06
2023-01-10T03:10:16.419Z,96.89
2023-01-10T03:11:16.396Z,96.94
2023-01-10T03:12:16.414Z,96.31
2023-01-10T03:13:16.362Z,97.10
2023-01-10T03:14:16.330Z,96.89
2023-01-10T03:15:16.350Z,96.73
2023-01-10T03:16:16.322Z,96.62
2023-01-10T03:17:16.307Z,96.62
2023-01-10T03:18:16.256Z,96.27
2023-01-10T03:19:16.242Z,96.27
2023-01-10T03:20:16.266Z,96.37
2023-01-10T03:21:16.212Z,96.58
2023-01-10T03:22:16.219Z,95.75
2023-01-10T03:23:16.179Z,96.27
2023-01-10T03:24:16.152Z,96.37
2023-01-10T03:25:16.165Z,96.37
2023-01-10T03:26:16.119Z,95.96
2023-01-10T03:27:17.123Z,95.65
2023-01-10T03:28:16.107Z,95.54
2023-01-10T03:29:16.062Z,95.34
2023-01-10T03:30:16.079Z,95.54
2023-01-10T03:31:16.036Z,95.54
2023-01-10T03:32:16.051Z,95.86
2023-01-10T03:33:16.063Z,95.65
2023-01-10T03:34:15.988Z,95.65
2023-01-10T03:35:15.984Z,95.75
2023-01-10T03:36:15.949Z,95.96
2023-01-10T03:37:16.011Z,96.27
2023-01-10T03:38:15.918Z,96.27
2023-01-10T03:39:15.900Z,94.93
2023-01-10T03:40:15.886Z,95.86
2023-01-10T03:41:15.860Z,96.27
2023-01-10T03:42:15.884Z,95.86
2023-01-10T03:43:15.826Z,95.86
2023-01-10T03:44:15.803Z,94.82
2023-01-10T03:45:15.794Z,95.24
2023-01-10T03:46:15.799Z,94.82
2023-01-10T03:47:15.785Z,95.24
2023-01-10T03:48:15.741Z,94.62
2023-01-10T03:49:15.737Z,94.51
2023-01-10T03:50:15.705Z,94.82
2023-01-10T03:51:15.695Z,94.93
2023-01-10T03:52:15.717Z,95.14
2023-01-10T03:53:15.663Z,94.93
2023-01-10T03:54:15.656Z,95.03
2023-01-10T03:55:15.625Z,94.57
2023-01-10T03:56:15.633Z,94.72
2023-01-10T03:57:15.629Z,94.82
2023-01-10T03:58:15.590Z,94.89
2023-01-10T03:59:15.573Z,94.37
2023-01-10T04:00:15.576Z,94.62
2023-01-10T04:01:15.626Z,94.68
2023-01-10T04:02:15.578Z,94.62
2023-01-10T04:03:15.608Z,94.68
2023-01-10T04:04:15.536Z,95.03
2023-01-10T04:05:15.489Z,94.78
2023-01-10T04:06:15.444Z,94.20
2023-01-10T04:07:15.458Z,94.16
2023-01-10T04:08:15.451Z,94.06
2023-01-10T04:09:15.389Z,94.57
2023-01-10T04:10:15.391Z,93.95
2023-01-10T04:11:15.388Z,93.95
2023-01-10T04:12:15.386Z,94.06
2023-01-10T04:13:15.342Z,93.74
2023-01-10T04:14:15.303Z,93.68
2023-01-10T04:15:15.333Z,93.74
2023-01-10T04:16:15.329Z,93.54
2023-01-10T04:17:15.300Z,93.64
2023-01-10T04:18:15.235Z,94.26
2023-01-10T04:19:15.232Z,94.31
2023-01-10T04:20:15.234Z,93.48
2023-01-10T04:21:15.216Z,94.62
2023-01-10T04:22:15.195Z,94.10
2023-01-10T04:23:15.168Z,94.20
2023-01-10T04:24:15.147Z,94.26
2023-01-10T04:25:15.133Z,93.74
2023-01-10T04:26:15.122Z,93.43
2023-01-10T04:27:15.135Z,94.20
2023-01-10T04:28:15.088Z,93.74
2023-01-10T04:29:15.055Z,93.23
2023-01-10T04:30:15.049Z,93.37
2023-01-10T04:31:15.070Z,94.06
2023-01-10T04:32:15.021Z,94.31
2023-01-10T04:33:14.977Z,93.89
2023-01-10T04:34:14.973Z,93.68
2023-01-10T04:35:14.968Z,93.79
2023-01-10T04:36:14.946Z,93.54
2023-01-10T04:37:14.988Z,93.06
2023-01-10T04:38:14.899Z,93.23
2023-01-10T04:39:14.876Z,93.43
2023-01-10T04:40:14.857Z,93.54
2023-01-10T04:41:14.838Z,93.23
2023-01-10T04:42:14.863Z,93.12
2023-01-10T04:43:14.821Z,92.81
2023-01-10T04:44:14.795Z,91.99
2023-01-10T04:47:01.855Z,92.44
2023-01-10T04:48:01.898Z,92.24
2023-01-10T04:49:01.855Z,92.13
2023-01-10T04:50:01.857Z,92.24
2023-01-10T04:51:01.816Z,92.55
2023-01-10T04:52:01.800Z,92.96
2023-01-10T04:53:01.799Z,93.16
2023-01-10T04:54:01.760Z,93.58
2023-01-10T04:55:01.751Z,93.48
2023-01-10T04:56:01.725Z,93.68
2023-01-10T04:57:01.718Z,93.58
2023-01-10T04:58:02.863Z,93.43
2023-01-10T04:59:02.816Z,93.58
2023-01-10T05:00:02.852Z,92.96
2023-01-10T05:01:02.795Z,93.06
2023-01-10T05:02:02.879Z,93.06
2023-01-10T05:03:02.857Z,93.48
2023-01-10T05:04:02.737Z,93.27
2023-01-10T05:05:02.708Z,93.89
2023-01-10T05:06:02.715Z,93.68
2023-01-10T05:07:02.680Z,93.48
2023-01-10T05:08:02.695Z,93.37
2023-01-10T05:09:02.638Z,93.31
2023-01-10T05:10:02.620Z,92.96
2023-01-10T05:11:02.618Z,93.21
2023-01-10T05:12:02.594Z,93.21
2023-01-10T05:13:02.603Z,93.21
2023-01-10T05:14:02.558Z,93.35
2023-01-10T05:15:02.556Z,94.18
2023-01-10T05:16:02.529Z,94.39
2023-01-10T05:17:02.535Z,94.81
2023-01-10T05:18:02.527Z,94.70
2023-01-10T05:19:02.475Z,94.39
2023-01-10T05:20:02.458Z,94.60
2023-01-10T05:21:02.453Z,94.74
2023-01-10T05:22:02.430Z,94.81
2023-01-10T05:23:02.432Z,95.12
2023-01-10T05:24:02.388Z,95.22
2023-01-10T05:25:02.370Z,95.01
2023-01-10T05:26:02.355Z,95.12
2023-01-10T05:27:02.333Z,94.81
2023-01-10T05:28:02.352Z,94.91
2023-01-10T05:29:02.315Z,94.91
2023-01-10T05:30:02.299Z,94.49
2023-01-10T05:31:02.304Z,94.60
2023-01-10T05:32:02.305Z,94.18
2023-01-10T05:33:02.267Z,94.29
2023-01-10T05:34:02.224Z,94.18
2023-01-10T05:35:02.243Z,93.87
2023-01-10T05:36:02.193Z,94.70
2023-01-10T05:37:02.173Z,94.18
2023-01-10T05:38:02.203Z,94.29
2023-01-10T05:39:02.169Z,94.08
2023-01-10T05:40:02.114Z,94.08
2023-01-10T05:41:02.104Z,94.49
2023-01-10T05:42:02.094Z,94.70
2023-01-10T05:43:02.124Z,94.81
2023-01-10T05:44:02.063Z,94.70
2023-01-10T05:45:02.045Z,94.81
2023-01-10T05:46:02.069Z,94.81
2023-01-10T05:47:02.105Z,94.91
2023-01-10T05:48:03.010Z,95.12
2023-01-10T05:49:01.971Z,94.39
2023-01-10T05:50:01.947Z,94.29
2023-01-10T05:51:01.942Z,94.49
2023-01-10T05:52:01.921Z,94.29
2023-01-10T05:53:01.961Z,94.45
2023-01-10T05:54:01.883Z,93.41
2023-01-10T05:55:01.865Z,93.21
2023-01-10T05:56:01.896Z,93.52
2023-01-10T05:57:01.829Z,94.45
2023-01-10T05:58:01.842Z,94.24
2023-01-10T05:59:09.573Z,94.45
2023-01-10T06:00:05.209Z,94.56
2023-01-10T06:01:02.837Z,94.45
2023-01-10T06:02:01.804Z,94.14
2023-01-10T06:03:01.842Z,93.06
2023-01-10T06:04:01.719Z,93.16
2023-01-10T06:05:01.695Z,93.73
2023-01-10T06:06:01.683Z,93.16
2023-01-10T06:07:01.688Z,92.34
2023-01-10T06:08:01.704Z,93.06
2023-01-10T06:09:01.658Z,92.65
2023-01-10T06:10:01.612Z,91.72
2023-01-10T06:11:01.607Z,91.55
2023-01-10T06:12:01.575Z,91.86
2023-01-10T06:13:02.596Z,92.59
2023-01-10T06:14:01.545Z,93.21
2023-01-10T06:15:01.547Z,93.00
2023-01-10T06:16:01.547Z,92.80
2023-01-10T06:17:01.508Z,92.90
2023-01-10T06:18:01.516Z,92.59
2023-01-10T06:19:01.483Z,93.10
2023-01-10T06:20:01.440Z,92.69
2023-01-10T06:21:01.437Z,93.31
2023-01-10T06:22:01.433Z,93.31
2023-01-10T06:23:01.429Z,93.93
2023-01-10T06:24:01.393Z,93.73
2023-01-10T06:25:02.550Z,93.52
2023-01-10T06:26:02.353Z,93.52
2023-01-10T06:27:01.342Z,93.89
2023-01-10T06:28:01.320Z,93.31
2023-01-10T06:29:01.325Z,92.90
2023-01-10T06:30:01.333Z,92.59
2023-01-10T06:31:01.329Z,92.85
2023-01-10T06:32:01.281Z,93.06
2023-01-10T06:33:01.247Z,93.21
2023-01-10T06:34:01.251Z,92.55
2023-01-10T06:35:01.215Z,92.24
2023-01-10T06:36:01.176Z,93.06
2023-01-10T06:37:01.182Z,92.96
2023-01-10T06:38:01.139Z,92.34
2023-01-10T06:39:01.164Z,92.85
2023-01-10T06:40:01.112Z,92.44
2023-01-10T06:41:01.105Z,91.82
2023-01-10T06:42:01.073Z,91.93
2023-01-10T06:43:01.106Z,91.72
2023-01-10T06:44:01.074Z,91.09
2023-01-10T06:45:01.068Z,91.61
2023-01-10T06:46:01.018Z,91.35
2023-01-10T06:47:01.007Z,91.76
2023-01-10T06:48:00.993Z,92.07
2023-01-10T06:49:00.997Z,92.49
2023-01-10T06:50:00.955Z,92.38
2023-01-10T06:51:00.931Z,92.34
2023-01-10T06:52:00.914Z,92.59
2023-01-10T06:53:00.888Z,92.34
2023-01-10T06:54:00.995Z,92.13
2023-01-10T06:55:00.871Z,91.72
2023-01-10T06:56:00.838Z,91.61
2023-01-10T06:57:00.854Z,92.03
2023-01-10T06:58:00.804Z,91.09
2023-01-10T06:59:00.822Z,91.61
2023-01-10T07:00:00.779Z,91.51
2023-01-10T07:01:00.882Z,91.20
2023-01-10T07:02:00.830Z,91.41
2023-01-10T07:03:00.734Z,91.09
2023-01-10T07:04:00.833Z,91.41
2023-01-10T07:05:00.702Z,91.41
2023-01-10T07:06:00.669Z,91.41
2023-01-10T07:07:00.666Z,91.76
2023-01-10T07:08:00.656Z,91.93
2023-01-10T07:09:00.671Z,91.72
2023-01-10T07:10:00.602Z,91.76
2023-01-10T07:11:00.598Z,91.76
2023-01-10T07:12:00.569Z,91.30
2023-01-10T07:13:00.554Z,91.30
2023-01-10T07:14:00.578Z,91.55
2023-01-10T07:15:00.538Z,91.35
2023-01-10T07:16:00.528Z,91.03
2023-01-10T07:17:00.490Z,91.41
2023-01-10T07:18:00.488Z,91.20
2023-01-10T07:19:00.487Z,91.24
2023-01-10T07:20:00.452Z,90.89
2023-01-10T07:21:00.425Z,91.30
2023-01-10T07:22:01.403Z,91.41
2023-01-10T07:23:00.419Z,91.61
2023-01-10T07:24:02.575Z,91.72
2023-01-10T07:25:01.350Z,91.51
2023-01-10T07:26:00.358Z,91.41
2023-01-10T07:27:00.332Z,91.41
2023-01-10T07:28:00.325Z,91.30
2023-01-10T07:29:00.319Z,91.09
2023-01-10T07:30:00.266Z,91.20
2023-01-10T07:31:00.417Z,91.20
2023-01-10T07:32:00.248Z,91.41
2023-01-10T07:33:00.227Z,90.99
2023-01-10T07:34:00.252Z,91.20
2023-01-10T07:35:00.197Z,91.09
2023-01-10T07:36:00.158Z,90.58
2023-01-10T07:37:00.166Z,91.09
2023-01-10T07:38:00.133Z,90.68
2023-01-10T07:39:00.157Z,91.61
2023-01-10T07:40:00.193Z,90.99
2023-01-10T07:41:00.078Z,91.30
2023-01-10T07:42:00.098Z,91.51
2023-01-10T07:43:00.052Z,91.41
2023-01-10T07:44:00.122Z,91.82
2023-01-10T07:45:00.010Z,91.30
2023-01-10T07:46:00.072Z,90.99
2023-01-10T07:46:59.977Z,91.09
2023-01-10T07:47:59.968Z,90.99
2023-01-10T07:48:59.996Z,91.72
2023-01-10T07:49:59.949Z,91.09
2023-01-10T07:50:59.913Z,91.41
2023-01-10T07:51:59.903Z,91.51
2023-01-10T07:52:59.873Z,91.20
2023-01-10T07:53:59.892Z,91.61
2023-01-10T07:54:59.932Z,91.09
2023-01-10T07:55:59.840Z,91.41
2023-01-10T07:56:59.832Z,91.61
2023-01-10T07:57:59.810Z,91.61
2023-01-10T07:58:59.794Z,91.20
2023-01-10T07:59:59.756Z,91.61
2023-01-10T08:00:59.800Z,91.09
2023-01-10T08:01:59.713Z,91.30
2023-01-10T08:02:59.748Z,91.61
2023-01-10T08:03:59.722Z,91.30
2023-01-10T08:04:59.681Z,91.72
2023-01-10T08:05:59.683Z,91.30
2023-01-10T08:06:59.641Z,91.47
2023-01-10T08:07:59.617Z,91.72
2023-01-10T08:08:59.628Z,91.30
2023-01-10T08:09:59.586Z,91.51
2023-01-10T08:10:59.584Z,91.93
2023-01-10T08:11:59.589Z,91.41
2023-01-10T08:13:06.723Z,91.61
2023-01-10T08:14:01.561Z,91.51
2023-01-10T08:14:59.513Z,90.64
2023-01-10T08:15:59.552Z,91.30
2023-01-10T08:16:59.477Z,91.61
2023-01-10T08:17:59.465Z,91.26
2023-01-10T08:18:59.467Z,91.67
2023-01-10T08:19:59.433Z,91.05
2023-01-10T08:20:59.415Z,90.53
2023-01-10T08:21:59.394Z,90.84
2023-01-10T08:22:59.373Z,90.53
2023-01-10T08:23:59.393Z,90.44
2023-01-10T08:24:59.366Z,90.99
2023-01-10T08:25:59.374Z,91.41
2023-01-10T08:26:59.322Z,91.09
2023-01-10T08:27:59.288Z,91.47
2023-01-10T08:28:59.317Z,91.61
2023-01-10T08:29:59.290Z,91.72
2023-01-10T08:30:59.317Z,90.31
2023-01-10T08:31:59.236Z,88.53
2023-01-10T08:32:59.214Z,87.07
2023-01-10T08:33:59.237Z,86.16
2023-01-10T08:34:59.223Z,82.42
2023-01-10T08:35:59.176Z,81.76
2023-01-10T08:36:59.144Z,80.53
2023-01-10T08:38:00.219Z,80.49
2023-01-10T08:38:59.150Z,79.60
2023-01-10T08:39:59.104Z,77.71
2023-01-10T08:40:59.080Z,77.68
2023-01-10T08:41:59.097Z,76.82
2023-01-10T08:42:59.033Z,77.44
2023-01-10T08:43:59.229Z,75.31
2023-01-10T08:45:00.442Z,74.26
2023-01-10T08:46:00.047Z,73.71
2023-01-10T08:46:58.995Z,73.54
2023-01-10T08:47:58.955Z,71.42
2023-01-10T08:48:58.975Z,69.56
2023-01-10T08:49:58.916Z,67.41
2023-01-10T08:50:58.899Z,69.20
2023-01-10T08:51:58.883Z,70.53
2023-01-10T08:52:58.906Z,71.52
2023-01-10T08:53:58.894Z,73.23
2023-01-10T08:54:58.914Z,74.63
2023-01-10T08:55:58.849Z,75.59
2023-01-10T08:56:58.897Z,77.37
2023-01-10T08:57:58.816Z,77.41
2023-01-10T08:58:58.828Z,77.96
2023-01-10T08:59:58.746Z,78.27
2023-01-10T09:00:58.785Z,79.13
2023-01-10T09:01:58.805Z,79.58
2023-01-10T09:02:58.803Z,81.09
2023-01-10T09:03:58.716Z,82.61
2023-01-10T09:04:58.664Z,84.09
2023-01-10T09:05:58.670Z,85.09
2023-01-10T09:06:58.645Z,84.99
2023-01-10T09:07:58.659Z,84.78
2023-01-10T09:08:58.637Z,85.95
2023-01-10T09:09:58.612Z,85.91
2023-01-10T09:10:58.556Z,85.30
2023-01-10T09:11:59.572Z,85.33
2023-01-10T09:12:58.544Z,85.64
2023-01-10T09:13:58.551Z,85.23
2023-01-10T09:14:58.500Z,86.20
2023-01-10T09:15:58.514Z,86.10
2023-01-10T09:16:58.460Z,87.17
2023-01-10T09:17:58.460Z,87.48
2023-01-10T09:18:58.468Z,87.21
2023-01-10T09:19:58.428Z,88.20
2023-01-10T09:20:58.415Z,88.71
2023-01-10T09:21:58.382Z,88.31
2023-01-10T09:22:58.457Z,88.31
2023-01-10T09:23:58.403Z,87.95
2023-01-10T09:24:58.368Z,87.95
2023-01-10T09:25:58.346Z,88.20
2023-01-10T09:26:58.314Z,87.74
2023-01-10T09:27:58.869Z,87.71
2023-01-10T09:28:58.275Z,87.40
2023-01-10T09:29:58.310Z,87.19
2023-01-10T09:30:58.230Z,87.08
2023-01-10T09:31:58.209Z,87.08
2023-01-10T09:32:58.196Z,87.29
2023-01-10T09:33:58.209Z,87.81
2023-01-10T09:34:58.193Z,87.50
2023-01-10T09:35:58.154Z,86.92
2023-01-10T09:36:58.146Z,87.85
2023-01-10T09:37:58.147Z,87.54
2023-01-10T09:38:58.088Z,87.60
2023-01-10T09:39:58.096Z,87.08
2023-01-10T09:40:58.053Z,87.40
2023-01-10T09:41:58.049Z,86.39
2023-01-10T09:42:58.054Z,86.15
2023-01-10T09:44:00.955Z,85.73
2023-01-10T09:44:58.041Z,85.11
2023-01-10T09:45:57.973Z,85.36
2023-01-10T09:46:58.016Z,84.74
2023-01-10T09:47:58.012Z,85.57
2023-01-10T09:48:57.913Z,85.25
2023-01-10T09:49:57.946Z,85.87
2023-01-10T09:50:57.890Z,85.67
2023-01-10T09:51:59.186Z,85.81
2023-01-10T09:52:58.906Z,86.02
2023-01-10T09:54:10.043Z,85.81
2023-01-10T09:54:59.924Z,85.25
2023-01-10T09:55:57.807Z,85.97
2023-01-10T09:56:57.834Z,86.43
2023-01-10T09:57:57.940Z,86.74
2023-01-10T09:58:57.760Z,86.94
2023-01-10T09:59:57.779Z,86.63
2023-01-10T10:00:58.636Z,87.56
2023-01-10T10:01:57.702Z,87.56
2023-01-10T10:02:57.700Z,87.66
2023-01-10T10:03:57.799Z,87.50
2023-01-10T10:04:57.697Z,87.77
2023-01-10T10:06:10.586Z,87.15
2023-01-10T10:06:59.657Z,87.15
2023-01-10T10:07:57.614Z,87.35
2023-01-10T10:08:57.620Z,86.74
2023-01-10T10:09:57.621Z,86.29
2023-01-10T10:10:57.542Z,85.46
2023-01-10T10:11:57.542Z,85.67
2023-01-10T10:12:57.512Z,86.15
2023-01-10T10:13:57.499Z,85.63
2023-01-10T10:14:57.518Z,85.31
2023-01-10T10:15:59.800Z,85.63
2023-01-10T10:16:57.446Z,83.42
2023-01-10T10:17:57.428Z,83.42
2023-01-10T10:18:57.496Z,83.12
2023-01-10T10:19:57.434Z,83.59
2023-01-10T10:20:57.388Z,83.80
2023-01-10T10:21:57.367Z,83.07
2023-01-10T10:22:57.353Z,82.46
2023-01-10T10:23:57.342Z,82.25
2023-01-10T10:24:59.599Z,82.81
2023-01-10T10:25:57.296Z,83.39
2023-01-10T10:26:57.499Z,81.95
2023-01-10T10:27:57.263Z,82.87
2023-01-10T10:28:57.258Z,82.15
2023-01-10T10:29:57.275Z,81.74
2023-01-10T10:30:57.816Z,81.84
2023-01-10T10:31:57.194Z,81.88
2023-01-10T10:32:57.167Z,82.91
2023-01-10T10:33:57.213Z,82.60
2023-01-10T10:34:57.199Z,82.60
2023-01-10T10:35:57.153Z,83.22
2023-01-10T10:36:57.102Z,83.67
2023-01-10T10:37:57.119Z,84.08
2023-01-10T10:38:57.081Z,83.87
2023-01-10T10:39:57.100Z,84.19
2023-01-10T10:40:58.090Z,84.70
2023-01-10T10:41:57.029Z,84.87
2023-01-10T10:42:57.097Z,84.70
2023-01-10T10:43:56.988Z,83.87
2023-01-10T10:44:57.150Z,84.70
2023-01-10T10:45:57.103Z,84.66
2023-01-10T10:47:29.325Z,84.77
2023-01-10T10:47:56.962Z,83.77
2023-01-10T10:48:56.899Z,84.19
2023-01-10T10:49:56.910Z,84.19
2023-01-10T10:50:56.891Z,83.67
2023-01-10T10:51:56.852Z,84.29
2023-01-10T10:52:56.848Z,83.87
2023-01-10T10:53:56.819Z,83.56
2023-01-10T10:54:56.864Z,82.77
2023-01-10T10:55:56.833Z,82.56
2023-01-10T10:56:56.777Z,82.25
2023-01-10T10:58:00.434Z,82.11
2023-01-10T10:58:57.760Z,81.09
2023-01-10T10:59:56.760Z,80.74
2023-01-10T11:00:56.796Z,81.01
2023-01-10T11:01:56.847Z,80.43
2023-01-10T11:02:56.670Z,80.74
2023-01-10T11:03:56.647Z,80.33
2023-01-10T11:04:56.720Z,79.30
2023-01-10T11:05:56.637Z,78.98
2023-01-10T11:06:56.599Z,78.74
2023-01-10T11:07:56.591Z,76.41
2023-01-10T11:08:56.606Z,73.95
2023-01-10T11:09:56.607Z,72.75
2023-01-10T11:10:56.541Z,72.61
2023-01-10T11:11:56.516Z,74.11
2023-01-10T11:12:56.502Z,73.54
2023-01-10T11:13:56.491Z,72.52
2023-01-10T11:14:56.572Z,72.96
2023-01-10T11:15:56.498Z,73.33
2023-01-10T11:16:56.449Z,73.23
2023-01-10T11:17:56.408Z,72.68
2023-01-10T11:18:56.407Z,74.22
2023-01-10T11:19:56.420Z,75.04
2023-01-10T11:20:56.372Z,75.18
2023-01-10T11:21:56.337Z,75.35
2023-01-10T11:22:56.343Z,75.08
2023-01-10T11:23:56.317Z,75.59
2023-01-10T11:24:56.351Z,75.69
2023-01-10T11:25:56.293Z,75.21
2023-01-10T11:26:56.258Z,76.38
2023-01-10T11:27:56.244Z,76.28
2023-01-10T11:28:56.233Z,76.31
2023-01-10T11:29:56.265Z,77.34
2023-01-10T11:30:56.226Z,76.86
2023-01-10T11:31:56.261Z,77.68
2023-01-10T11:32:56.167Z,77.37
2023-01-10T11:33:56.193Z,76.65
2023-01-10T11:34:56.163Z,77.58
2023-01-10T11:35:56.119Z,77.68
2023-01-10T11:36:56.103Z,77.92
2023-01-10T11:37:56.082Z,78.37
2023-01-10T11:38:56.074Z,78.89
2023-01-10T11:39:56.089Z,78.78
2023-01-10T11:40:56.032Z,79.19
2023-01-10T11:41:56.044Z,79.30
2023-01-10T11:42:58.299Z,78.78
2023-01-10T11:43:55.991Z,79.44
2023-01-10T11:44:56.047Z,80.67
2023-01-10T11:45:56.229Z,80.71
2023-01-10T11:46:55.960Z,81.26
2023-01-10T11:47:55.922Z,82.54
2023-01-10T11:49:05.519Z,82.33
2023-01-10T11:49:57.915Z,83.71
2023-01-10T11:50:55.875Z,83.36
2023-01-10T11:51:55.882Z,83.47
2023-01-10T11:52:56.830Z,84.19
2023-01-10T11:53:55.808Z,83.29
2023-01-10T11:54:58.306Z,83.81
2023-01-10T11:55:55.791Z,84.12
2023-01-10T11:56:55.774Z,84.19
2023-01-10T11:57:55.765Z,84.64
2023-01-10T11:58:55.743Z,84.64
2023-01-10T11:59:55.749Z,85.25
2023-01-10T12:00:58.043Z,84.94
2023-01-10T12:01:55.781Z,84.22
2023-01-10T12:02:55.676Z,84.12
2023-01-10T12:03:55.709Z,84.43
2023-01-10T12:04:55.756Z,84.01
2023-01-10T12:05:56.616Z,83.98
2023-01-10T12:06:55.595Z,84.01
2023-01-10T12:07:55.579Z,83.47
2023-01-10T12:08:55.573Z,83.98
2023-01-10T12:09:55.614Z,82.95
2023-01-10T12:10:55.520Z,82.95
2023-01-10T12:11:55.512Z,82.33
2023-01-10T12:12:55.493Z,83.05
2023-01-10T12:13:55.487Z,82.84
2023-01-10T12:14:55.553Z,82.74
2023-01-10T12:15:55.490Z,82.37
2023-01-10T12:16:55.507Z,82.84
2023-01-10T12:17:55.467Z,82.57
2023-01-10T12:18:55.414Z,82.06
2023-01-10T12:19:55.549Z,82.37
2023-01-10T12:20:55.356Z,82.47
2023-01-10T12:21:55.367Z,82.47
2023-01-10T12:22:57.067Z,83.09
2023-01-10T12:23:55.322Z,83.29
2023-01-10T12:24:55.305Z,83.67
2023-01-10T12:26:10.660Z,81.65
2023-01-10T12:26:57.286Z,81.85
2023-01-10T12:27:55.401Z,82.47
2023-01-10T12:28:56.760Z,81.81
2023-01-10T12:29:55.221Z,82.06
2023-01-10T12:30:55.226Z,82.43
2023-01-10T12:31:55.175Z,82.84
2023-01-10T12:32:55.203Z,82.43
2023-01-10T12:33:55.141Z,82.33
2023-01-10T12:34:57.109Z,82.33
2023-01-10T12:35:55.102Z,82.74
2023-01-10T12:36:55.079Z,82.33
2023-01-10T12:37:55.223Z,82.74
2023-01-10T12:38:55.064Z,83.26
2023-01-10T12:39:55.032Z,83.26
2023-01-10T12:40:56.895Z,82.74
2023-01-10T12:41:55.017Z,82.33
2023-01-10T12:42:55.069Z,82.12
2023-01-10T12:43:54.984Z,82.54
2023-01-10T12:44:55.038Z,82.43
2023-01-10T12:45:55.033Z,82.02
2023-01-10T12:47:10.660Z,82.54
2023-01-10T12:47:56.935Z,82.12
2023-01-10T12:48:54.881Z,81.92
2023-01-10T12:49:54.882Z,81.51
2023-01-10T12:50:54.850Z,80.89
2023-01-10T12:51:54.832Z,81.34
2023-01-10T12:52:54.853Z,82.37
2023-01-10T12:53:54.796Z,81.85